49分钟前
罗盘
风向 的 风向 250° Meppen Air Base 06/24
风: 8 千吨, 3 beaufort
0 500 1.500 3.000 5.000 8.000 10.000
METAR ETWM 020020Z AUTO 25008KT //// // ////// 03/01 Q0994 ///

METAR定义 | 嵌入

24小时趋势

航班类别VFRLIFR
温度10 °C3 °C
风速21 千吨0 千吨
能见度10 公里+0 米

更多历史数据

下载我们的安卓应用程序

从你的主屏幕上轻松地访问你的航空天气。
只需一次付费,您就可以获得无广告的体验。

您会帮助我们保持Metar-Taf.com正常运行吗?
您的贡献有助于网站的进一步开发并支付费用。

没有更多广告

您是捐款5美元还是更多?然后,我们将永远不会再向您展示广告,这是我们永恒的感谢!
捐赠前先登录

METAR Meppen Air Base

该字段位于德国中。 机场有{a,plural,=1{一条跑道} other{#跑道}}: 06/24

该报告是针对2021年12月2日 01:20, 当地时间上的Meppen Air Base所做的。

机场观察

风来自西南西 (250°)方向,速度为8 千吨。

温度为3 °C,阵风为-3 °C。 露点为1 °C,相对湿度为87%。 海平面上的气压为994 压力 (QNH)。

白天

今天,太阳从08:21升起,在16:18降落。 这适用于Meppen Air Base,世界夏令时可能有所不同。 当地时间与世界标准时间之间的时差为+1 小时。 当前,没有夏令时有效。

公司介绍

我们没有关于这个机场的公司信息。

体会

到Vliegles.nl去找飞行课程,跳伞和其他飞行体验。 浏览页面,了解Meppen Air Base附近所有可用的活动。 你也可以使用搜索功能来寻找你所在地附近的特定飞行课程、跳伞或其他飞行体验。

您是否要在网站上Meppen Air Base飞行的天气? 阅读更多   自由!